Time;durP1;ratioP1;P1;durP2;ratioP2;P2;SDS_P1;SDS_P2;PMS_P1;PMS_P2;Temp;Humidity;BMP_temperature;BMP_pressure;BME280_temperature;BME280_humidity;BME280_pressure;Samples;Min_cycle;Max_cycle;Signal;HPM_P1;HPM_P2
2021/10/28 00:14:16;;;;;;;0.57;0.50;;;21.40;54.10;;;;;;6292293;28;20032;-67
2021/10/28 00:17:19;;;;;;;0.40;0.40;;;21.40;54.10;;;;;;6283517;28;20537;-67
2021/10/28 00:20:19;;;;;;;0.60;0.50;;;21.40;54.00;;;;;;6267313;28;20078;-67
2021/10/28 00:23:20;;;;;;;0.65;0.65;;;21.40;54.00;;;;;;6283251;28;20036;-67
2021/10/28 00:26:21;;;;;;;0.50;0.50;;;21.40;54.00;;;;;;6291746;28;20108;-67
2021/10/28 00:29:23;;;;;;;0.50;0.50;;;21.40;54.00;;;;;;6291811;28;20024;-67
2021/10/28 00:32:24;;;;;;;0.40;0.40;;;21.40;54.00;;;;;;6289375;28;20032;-67
2021/10/28 00:35:25;;;;;;;0.43;0.40;;;21.40;54.10;;;;;;6292320;28;20086;-67
2021/10/28 00:38:25;;;;;;;0.63;0.60;;;21.40;54.00;;;;;;6291851;28;20025;-67
2021/10/28 00:41:26;;;;;;;0.40;0.40;;;21.40;54.00;;;;;;6291538;28;20029;-67
2021/10/28 00:44:26;;;;;;;2.40;0.50;;;21.40;54.10;;;;;;6291841;28;20028;-67
2021/10/28 00:47:33;;;;;;;0.50;0.38;;;21.40;54.10;;;;;;6264373;28;20022;-67
2021/10/28 00:50:34;;;;;;;0.30;0.30;;;21.40;54.00;;;;;;6259499;28;20013;-67
2021/10/28 00:53:35;;;;;;;0.77;0.50;;;21.40;54.10;;;;;;6293852;28;20090;-67
2021/10/28 00:56:40;;;;;;;0.45;0.45;;;21.40;54.10;;;;;;6296225;28;20493;-67
2021/10/28 00:59:41;;;;;;;;;;;21.40;54.10;;;;;;6296335;28;20028;-67
2021/10/28 01:02:42;;;;;;;0.57;0.40;;;21.40;54.10;;;;;;6295260;28;19908;-67
2021/10/28 01:05:43;;;;;;;0.90;0.55;;;21.40;54.10;;;;;;6295724;28;20032;-67
2021/10/28 01:08:45;;;;;;;0.57;0.40;;;21.40;54.10;;;;;;6294681;28;20485;-67
2021/10/28 01:11:46;;;;;;;0.40;0.40;;;21.40;54.10;;;;;;6295580;28;20379;-67
2021/10/28 01:14:47;;;;;;;0.50;0.45;;;21.40;54.10;;;;;;6271318;28;20390;-67
2021/10/28 01:17:47;;;;;;;0.80;0.52;;;21.40;54.10;;;;;;6278859;28;20064;-67
2021/10/28 01:20:51;;;;;;;0.50;0.40;;;21.40;54.10;;;;;;6295626;28;20460;-67
2021/10/28 01:23:53;;;;;;;0.40;0.40;;;21.40;54.10;;;;;;6279891;28;20542;-67
2021/10/28 01:27:05;;;;;;;0.55;0.50;;;21.40;54.10;;;;;;6283080;28;20020;-67
2021/10/28 01:30:06;;;;;;;0.55;0.40;;;21.40;54.10;;;;;;6295464;28;20029;-67
2021/10/28 01:33:07;;;;;;;0.60;0.57;;;21.40;54.10;;;;;;6292593;28;20059;-67
2021/10/28 01:36:08;;;;;;;0.40;0.40;;;21.40;54.10;;;;;;6293941;28;20532;-67
2021/10/28 01:39:21;;;;;;;0.50;0.50;;;21.40;54.10;;;;;;6295141;28;20036;-67
2021/10/28 01:42:21;;;;;;;0.65;0.40;;;21.40;54.80;;;;;;6295084;28;20028;-67
2021/10/28 01:45:22;;;;;;;0.50;0.50;;;21.40;54.10;;;;;;6295062;28;20078;-67
2021/10/28 01:48:23;;;;;;;0.40;0.40;;;21.40;54.10;;;;;;6252339;28;20025;-67
2021/10/28 01:51:24;;;;;;;0.47;0.40;;;21.40;54.10;;;;;;6253990;28;20021;-67
2021/10/28 01:54:28;;;;;;;0.40;0.40;;;21.40;54.80;;;;;;6294565;28;20074;-67
2021/10/28 01:57:29;;;;;;;0.85;0.57;;;21.40;54.10;;;;;;6294505;28;20028;-67
2021/10/28 02:00:30;;;;;;;0.40;0.40;;;21.40;54.10;;;;;;6294003;28;20021;-67
2021/10/28 02:03:30;;;;;;;0.35;0.35;;;21.40;54.10;;;;;;6293052;28;20032;-67
2021/10/28 02:06:31;;;;;;;0.40;0.40;;;21.40;54.10;;;;;;6293090;28;20135;-67
2021/10/28 02:09:32;;;;;;;0.55;0.55;;;21.40;54.10;;;;;;6294442;28;20632;-67
2021/10/28 02:12:34;;;;;;;0.30;0.30;;;21.40;54.10;;;;;;6282072;28;20049;-67
2021/10/28 02:15:35;;;;;;;0.60;0.40;;;21.40;54.10;;;;;;6269397;28;20029;-67
2021/10/28 02:18:36;;;;;;;0.60;0.43;;;21.40;54.10;;;;;;6268962;28;20528;-67
2021/10/28 02:21:36;;;;;;;0.50;0.50;;;21.40;54.10;;;;;;6271159;28;20064;-67
2021/10/28 02:24:37;;;;;;;0.30;0.30;;;21.40;54.10;;;;;;6293585;28;20020;-67
2021/10/28 02:27:39;;;;;;;0.40;0.40;;;21.40;54.10;;;;;;6293767;28;20025;-67
2021/10/28 02:30:39;;;;;;;0.45;0.45;;;21.40;54.10;;;;;;6291110;28;20060;-67
2021/10/28 02:33:40;;;;;;;0.50;0.40;;;21.40;54.10;;;;;;6293733;28;20081;-67
2021/10/28 02:36:41;;;;;;;1.92;0.73;;;21.40;54.10;;;;;;6292020;28;20025;-67
2021/10/28 02:39:41;;;;;;;1.35;0.50;;;21.40;54.10;;;;;;6293934;28;20032;-67
2021/10/28 02:42:42;;;;;;;0.40;0.40;;;21.40;54.10;;;;;;6290404;28;20036;-67
2021/10/28 02:45:43;;;;;;;0.35;0.35;;;21.40;54.10;;;;;;6293418;28;20039;-67
2021/10/28 02:48:43;;;;;;;0.30;0.30;;;21.40;54.10;;;;;;6246763;28;20067;-67
2021/10/28 02:51:48;;;;;;;0.38;0.35;;;21.40;54.10;;;;;;6259672;28;20032;-67
2021/10/28 02:54:49;;;;;;;0.47;0.40;;;21.40;54.10;;;;;;6293169;28;20040;-67
2021/10/28 02:57:49;;;;;;;0.30;0.30;;;21.40;54.10;;;;;;6270838;28;20031;-69
2021/10/28 03:00:50;;;;;;;0.70;0.50;;;21.40;54.10;;;;;;6293183;28;20025;-69
2021/10/28 03:03:51;;;;;;;0.40;0.40;;;21.40;54.10;;;;;;6292303;28;20032;-67
2021/10/28 03:06:52;;;;;;;0.50;0.43;;;21.40;54.10;;;;;;6288379;28;20025;-67
2021/10/28 03:09:53;;;;;;;0.40;0.40;;;21.40;54.10;;;;;;6267138;28;20017;-67
2021/10/28 03:12:55;;;;;;;0.65;0.50;;;21.40;54.10;;;;;;6277525;28;20097;-68
2021/10/28 03:15:55;;;;;;;0.40;0.40;;;21.40;54.10;;;;;;6293700;28;20041;-69
2021/10/28 03:25:40;;;;;;;0.40;0.40;;;21.40;54.10;;;;;;6275507;28;20500;-68
2021/10/28 03:28:40;;;;;;;0.43;0.43;;;21.40;54.10;;;;;;6293027;28;20489;-68
2021/10/28 03:31:41;;;;;;;0.40;0.40;;;21.40;54.10;;;;;;6278990;28;20020;-68
2021/10/28 03:34:43;;;;;;;0.50;0.40;;;21.40;54.10;;;;;;6293227;28;20024;-68
2021/10/28 03:37:52;;;;;;;0.50;0.50;;;21.40;54.10;;;;;;6292356;28;20624;-68
2021/10/28 03:51:33;;;;;;;0.32;0.32;;;21.40;54.10;;;;;;6244446;28;20128;-68
2021/10/28 04:01:13;;;;;;;0.60;0.40;;;21.40;54.10;;;;;;6292457;28;20016;-68
2021/10/28 04:16:33;;;;;;;0.38;0.38;;;21.40;54.80;;;;;;6292273;28;20420;-68
2021/10/28 04:20:47;;;;;;;0.52;0.40;;;21.40;54.10;;;;;;6267657;28;20429;-68
2021/10/28 04:30:29;;;;;;;0.50;0.50;;;21.40;54.10;;;;;;6283944;28;20033;-69
2021/10/28 04:33:29;;;;;;;0.43;0.40;;;21.40;54.10;;;;;;6282594;28;20056;-68
2021/10/28 04:36:31;;;;;;;0.30;0.30;;;21.40;54.10;;;;;;6278686;28;20024;-68
2021/10/28 04:39:32;;;;;;;0.40;0.40;;;21.40;54.10;;;;;;6296775;28;20440;-68
2021/10/28 04:42:33;;;;;;;0.60;0.40;;;21.40;54.10;;;;;;6295953;28;20064;-68
2021/10/28 04:45:34;;;;;;;0.73;0.30;;;21.40;54.10;;;;;;6296658;28;20028;-68
2021/10/28 04:48:34;;;;;;;0.32;0.32;;;21.40;54.10;;;;;;6252072;28;20242;-68
2021/10/28 04:51:35;;;;;;;0.30;0.30;;;21.40;54.10;;;;;;6257813;28;20123;-68
2021/10/28 04:54:36;;;;;;;0.32;0.30;;;21.40;54.10;;;;;;6271390;28;20017;-69
2021/10/28 04:57:39;;;;;;;0.47;0.47;;;21.40;54.10;;;;;;6282957;28;20389;-68
2021/10/28 05:00:39;;;;;;;0.38;0.38;;;21.40;54.10;;;;;;6270902;28;20521;-68
2021/10/28 05:03:40;;;;;;;2.60;0.40;;;21.40;54.20;;;;;;6291816;28;20032;-68
2021/10/28 05:06:41;;;;;;;0.30;0.30;;;21.40;54.20;;;;;;6295919;28;20017;-68
2021/10/28 05:09:43;;;;;;;0.70;0.47;;;21.40;54.20;;;;;;6294723;28;20020;-68
2021/10/28 05:12:44;;;;;;;0.43;0.40;;;21.40;54.20;;;;;;6295259;28;20548;-68
2021/10/28 05:15:49;;;;;;;0.55;0.47;;;21.40;54.20;;;;;;6288141;28;20033;-68
2021/10/28 05:18:51;;;;;;;0.63;0.32;;;21.40;54.20;;;;;;6271851;28;20029;-68
2021/10/28 05:21:51;;;;;;;0.75;0.50;;;21.40;54.20;;;;;;6272645;28;20175;-68
2021/10/28 05:24:52;;;;;;;0.43;0.40;;;21.40;54.20;;;;;;6294208;28;20026;-68
2021/10/28 05:27:52;;;;;;;0.65;0.50;;;21.40;54.20;;;;;;6295588;28;20027;-68
2021/10/28 05:30:53;;;;;;;0.75;0.50;;;21.40;54.20;;;;;;6295325;28;20486;-70
2021/10/28 05:33:54;;;;;;;2.70;0.43;;;21.40;54.20;;;;;;6245328;28;20134;-70
2021/10/28 05:36:55;;;;;;;0.50;0.30;;;21.40;54.30;;;;;;6242492;28;20067;-69
2021/10/28 05:39:59;;;;;;;7.03;1.00;;;21.40;54.30;;;;;;6244003;28;20025;-69
2021/10/28 05:43:01;;;;;;;2.80;1.40;;;21.30;53.50;;;;;;6263126;28;20028;-69
2021/10/28 05:46:02;;;;;;;5.40;1.85;;;21.30;53.10;;;;;;6265863;28;20021;-69
2021/10/28 05:49:03;;;;;;;1.73;1.20;;;21.40;52.90;;;;;;6241332;28;20543;-69
2021/10/28 05:52:03;;;;;;;1.83;1.27;;;21.40;53.50;;;;;;6248713;28;20146;-68
2021/10/28 05:55:05;;;;;;;1.73;1.20;;;21.40;53.30;;;;;;6249160;28;20029;-69
2021/10/28 05:58:06;;;;;;;2.33;1.38;;;21.40;52.70;;;;;;6253915;28;20025;-68
2021/10/28 06:01:07;;;;;;;6.30;1.65;;;21.40;52.70;;;;;;6235976;28;20048;-70
2021/10/28 06:04:07;;;;;;;3.40;1.50;;;21.40;52.90;;;;;;6257632;28;20040;-68
2021/10/28 06:07:09;;;;;;;2.90;1.38;;;21.40;52.90;;;;;;6270174;28;20497;-68
2021/10/28 06:10:12;;;;;;;6.45;1.90;;;21.40;53.00;;;;;;6271131;28;20025;-67
2021/10/28 06:13:12;;;;;;;3.60;2.05;;;21.40;53.00;;;;;;6271168;28;20104;-68
2021/10/28 06:16:13;;;;;;;5.70;1.98;;;21.40;52.70;;;;;;6270662;28;20036;-67
2021/10/28 06:19:15;;;;;;;3.13;1.50;;;21.40;52.60;;;;;;6237143;28;20483;-67
2021/10/28 06:22:16;;;;;;;2.72;1.58;;;21.30;52.70;;;;;;6228582;28;20017;-67
2021/10/28 06:25:19;;;;;;;3.15;1.45;;;21.30;52.80;;;;;;6252221;28;20036;-68
2021/10/28 06:28:20;;;;;;;1.92;1.10;;;21.30;52.70;;;;;;6269566;28;20060;-68
2021/10/28 06:31:23;;;;;;;4.15;1.45;;;21.40;52.80;;;;;;6262306;28;20067;-66
2021/10/28 06:34:27;;;;;;;3.33;1.48;;;21.30;52.80;;;;;;6245869;28;20052;-68
2021/10/28 06:37:29;;;;;;;3.47;1.67;;;21.30;52.80;;;;;;6246363;28;20079;-68
2021/10/28 06:40:30;;;;;;;2.78;1.30;;;21.30;52.90;;;;;;6245914;28;20100;-68
2021/10/28 06:43:31;;;;;;;2.80;1.17;;;21.30;52.90;;;;;;6246139;28;20053;-68
2021/10/28 06:46:32;;;;;;;3.42;1.35;;;21.30;52.90;;;;;;6242391;28;20053;-67
2021/10/28 06:49:36;;;;;;;2.00;1.38;;;21.30;52.90;;;;;;6221768;28;20037;-67
2021/10/28 06:53:21;;;;;;;5.30;1.50;;;21.30;52.90;;;;;;6236165;28;20029;-68
2021/10/28 06:56:06;;;;;;;3.15;1.42;;;21.30;53.00;;;;;;6243420;28;20078;-67
2021/10/28 07:02:37;;;;;;;1.90;1.08;;;21.30;53.00;;;;;;6270960;28;20021;-67
2021/10/28 07:05:40;;;;;;;2.22;1.35;;;21.30;53.00;;;;;;6270202;28;20022;-68
2021/10/28 07:08:44;;;;;;;1.80;1.27;;;21.40;53.10;;;;;;6247023;28;20039;-68
2021/10/28 07:11:51;;;;;;;1.58;1.15;;;21.30;53.10;;;;;;6245742;28;20049;-67
2021/10/28 07:14:57;;;;;;;2.22;1.20;;;21.30;53.10;;;;;;6269330;28;20100;-68
2021/10/28 07:27:50;;;;;;;2.47;1.30;;;21.30;53.20;;;;;;6269802;28;20453;-69
2021/10/28 07:31:06;;;;;;;1.75;1.00;;;21.40;53.20;;;;;;6268406;28;20517;-69
2021/10/28 07:57:14;;;;;;;1.05;0.95;;;21.30;53.40;;;;;;6262028;28;20038;-69
2021/10/28 08:17:06;;;;;;;1.88;1.00;;;21.30;53.40;;;;;;6273987;28;20025;-69
2021/10/28 08:19:47;;;;;;;1.30;1.00;;;21.30;53.40;;;;;;6229632;28;20042;-68
2021/10/28 08:23:00;;;;;;;1.65;1.10;;;21.30;53.40;;;;;;6236238;28;20067;-69
2021/10/28 08:29:24;;;;;;;1.90;1.10;;;21.30;53.40;;;;;;6248994;28;20030;-69
2021/10/28 08:32:25;;;;;;;1.98;1.13;;;21.30;53.40;;;;;;6232406;28;20030;-69
2021/10/28 08:35:26;;;;;;;2.30;1.10;;;21.40;53.50;;;;;;6224295;28;20521;-69
2021/10/28 08:38:26;;;;;;;1.45;0.90;;;21.30;53.40;;;;;;6248396;28;20030;-69
2021/10/28 08:41:28;;;;;;;1.23;1.00;;;21.30;53.40;;;;;;6248793;28;20104;-69
2021/10/28 08:44:31;;;;;;;1.02;0.90;;;21.30;53.40;;;;;;6249294;28;20021;-69
2021/10/28 08:47:32;;;;;;;1.20;0.98;;;21.30;54.20;;;;;;6235030;28;20076;-69
2021/10/28 08:50:41;;;;;;;1.27;1.00;;;21.30;53.40;;;;;;6224539;28;20030;-69
2021/10/28 08:57:19;;;;;;;1.05;0.80;;;21.30;53.40;;;;;;6241989;28;20067;-69
2021/10/28 09:27:34;;;;;;;2.30;0.90;;;21.30;54.10;;;;;;6219753;28;20026;-69
2021/10/28 09:30:50;;;;;;;1.27;0.98;;;21.30;53.40;;;;;;6221828;28;20057;-69
2021/10/28 09:43:55;;;;;;;1.48;1.08;;;21.30;53.40;;;;;;6271850;28;20044;-69
2021/10/28 09:47:05;;;;;;;0.88;0.80;;;21.40;53.50;;;;;;6263208;28;20061;-69
2021/10/28 09:53:29;;;;;;;0.93;0.80;;;21.30;53.40;;;;;;6246672;28;20025;-69
2021/10/28 09:59:59;;;;;;;1.05;0.95;;;21.40;53.50;;;;;;6271605;28;20494;-69
2021/10/28 10:03:09;;;;;;;1.23;0.73;;;21.40;53.50;;;;;;6248931;28;20052;-69
2021/10/28 10:06:17;;;;;;;1.23;0.90;;;21.40;53.50;;;;;;6245719;28;20075;-69
2021/10/28 10:09:19;;;;;;;1.25;0.98;;;21.40;53.60;;;;;;6246552;28;20033;-69
2021/10/28 10:12:20;;;;;;;1.00;0.90;;;21.40;53.50;;;;;;6246573;28;20061;-69
2021/10/28 10:15:21;;;;;;;0.93;0.80;;;21.40;53.50;;;;;;6246681;28;20467;-69
2021/10/28 10:18:23;;;;;;;1.38;0.93;;;21.40;53.50;;;;;;6260629;28;20029;-69
2021/10/28 10:21:31;;;;;;;1.77;0.88;;;21.40;53.60;;;;;;6270863;28;20028;-69
2021/10/28 10:24:47;;;;;;;1.02;0.80;;;21.40;53.50;;;;;;6270482;28;20017;-69
2021/10/28 11:03:07;;;;;;;1.10;0.82;;;21.40;53.50;;;;;;6246713;28;20024;-69
2021/10/28 11:30:11;;;;;;;3.45;1.13;;;21.60;54.10;;;;;;6243891;28;20030;-68
2021/10/28 12:14:23;;;;;;;3.83;1.90;;;21.50;55.00;;;;;;6265902;28;20021;-68
2021/10/28 12:20:51;;;;;;;2.72;1.90;;;21.50;55.40;;;;;;6243598;28;20053;-70
2021/10/28 12:23:59;;;;;;;3.55;2.00;;;21.50;54.90;;;;;;6239081;28;20034;-69
2021/10/28 12:47:11;;;;;;;5.40;3.15;;;21.50;53.00;;;;;;6249483;28;20108;-70
2021/10/28 12:57:09;;;;;;;10.50;3.20;;;21.50;52.40;;;;;;6263802;28;20334;-69
2021/10/28 13:50:02;;;;;;;3.78;1.63;;;21.50;54.00;;;;;;6246322;28;20033;-69
2021/10/28 13:56:48;;;;;;;3.70;1.60;;;21.50;54.00;;;;;;6263929;28;20450;-68
2021/10/28 14:23:08;;;;;;;4.05;2.70;;;21.50;52.30;;;;;;6245299;28;20026;-70
2021/10/28 14:39:20;;;;;;;7.65;2.55;;;21.50;52.00;;;;;;6269646;28;20499;-68
2021/10/28 15:28:54;;;;;;;5.93;3.50;;;21.50;53.60;;;;;;6246761;28;20411;-69
2021/10/28 15:35:15;;;;;;;14.50;5.43;;;21.50;53.60;;;;;;6261380;28;20442;-68
2021/10/28 15:38:25;;;;;;;10.55;4.40;;;21.50;53.60;;;;;;6266157;28;20028;-68
2021/10/28 16:23:37;;;;;;;13.60;5.70;;;21.50;53.90;;;;;;6261436;28;20029;-69
2021/10/28 16:26:38;;;;;;;12.57;4.88;;;21.50;53.90;;;;;;6258325;28;20028;-69
2021/10/28 16:29:38;;;;;;;11.10;4.95;;;21.50;53.90;;;;;;6269211;28;20727;-68
2021/10/28 16:32:39;;;;;;;12.07;5.68;;;21.50;54.00;;;;;;6257161;28;20492;-69
2021/10/28 16:35:41;;;;;;;12.88;5.30;;;21.50;54.60;;;;;;6255160;28;20033;-69
2021/10/28 16:38:43;;;;;;;11.10;5.10;;;21.50;53.90;;;;;;6256796;28;20041;-68
2021/10/28 16:41:47;;;;;;;10.00;4.85;;;21.50;54.00;;;;;;6244406;28;20132;-68
2021/10/28 16:44:48;;;;;;;10.65;4.75;;;21.50;54.00;;;;;;6259439;28;20075;-69
2021/10/28 16:47:48;;;;;;;9.55;4.88;;;21.50;54.00;;;;;;6237104;28;20022;-69
2021/10/28 16:50:49;;;;;;;11.73;4.70;;;21.50;54.00;;;;;;6269010;28;20040;-69
2021/10/28 16:53:50;;;;;;;13.02;5.50;;;21.50;54.00;;;;;;6270359;28;20021;-69
2021/10/28 16:56:51;;;;;;;11.50;4.72;;;21.50;54.00;;;;;;6261108;28;20378;-68
2021/10/28 16:59:51;;;;;;;9.70;4.57;;;21.50;54.00;;;;;;6245014;28;20033;-68
2021/10/28 17:02:52;;;;;;;8.05;3.85;;;21.50;54.00;;;;;;6233983;28;20113;-69
2021/10/28 17:05:52;;;;;;;7.13;4.20;;;21.50;54.00;;;;;;6229272;28;20033;-69
2021/10/28 17:08:56;;;;;;;8.60;4.53;;;21.50;54.00;;;;;;6255007;28;20124;-68
2021/10/28 17:11:57;;;;;;;9.52;4.28;;;21.50;54.00;;;;;;6233999;28;20052;-68
2021/10/28 17:14:57;;;;;;;10.95;4.53;;;21.50;54.00;;;;;;6269989;28;20021;-68
2021/10/28 17:17:58;;;;;;;9.30;4.07;;;21.50;54.00;;;;;;6256843;28;20246;-68
2021/10/28 17:21:04;;;;;;;7.70;4.03;;;21.50;54.00;;;;;;6247604;28;20017;-68
2021/10/28 17:24:07;;;;;;;6.60;4.10;;;21.50;54.00;;;;;;6267158;28;20433;-69
2021/10/28 17:27:09;;;;;;;9.25;3.80;;;21.50;54.10;;;;;;6239693;28;20036;-69
2021/10/28 17:30:10;;;;;;;7.20;3.65;;;21.50;54.10;;;;;;6269009;28;20096;-69
2021/10/28 17:33:10;;;;;;;8.00;3.88;;;21.50;54.10;;;;;;6247359;28;20482;-69
2021/10/28 17:36:11;;;;;;;6.10;3.50;;;21.50;54.10;;;;;;6262927;28;20028;-68
2021/10/28 17:39:11;;;;;;;5.68;3.20;;;21.50;54.10;;;;;;6244091;28;20036;-69
2021/10/28 17:42:12;;;;;;;8.02;4.07;;;21.50;54.10;;;;;;6257301;28;20040;-69
2021/10/28 17:45:13;;;;;;;8.88;3.75;;;21.50;54.10;;;;;;6268130;28;20078;-68
2021/10/28 17:48:14;;;;;;;7.75;3.70;;;21.50;54.10;;;;;;6228243;28;20018;-68
2021/10/28 17:51:15;;;;;;;6.38;3.30;;;21.50;54.20;;;;;;6230559;28;20025;-68
2021/10/28 17:54:16;;;;;;;6.20;3.33;;;21.50;54.10;;;;;;6248651;28;20029;-69
2021/10/28 17:57:16;;;;;;;7.63;3.67;;;21.50;54.10;;;;;;6253839;28;20111;-68
2021/10/28 18:00:19;;;;;;;6.90;3.70;;;21.50;54.20;;;;;;6243980;28;20471;-69
2021/10/28 18:03:21;;;;;;;7.68;3.92;;;21.50;54.20;;;;;;6244281;28;20026;-69
2021/10/28 18:06:21;;;;;;;7.53;3.47;;;21.50;54.20;;;;;;6242686;28;20255;-68
2021/10/28 18:09:23;;;;;;;5.28;3.03;;;21.50;54.20;;;;;;6267493;28;20524;-69
2021/10/28 18:12:25;;;;;;;6.60;3.25;;;21.50;54.20;;;;;;6262279;28;20045;-68
2021/10/28 18:15:27;;;;;;;4.78;3.10;;;21.50;54.30;;;;;;6268470;28;20519;-69
2021/10/28 18:18:28;;;;;;;5.85;3.22;;;21.50;54.20;;;;;;6252136;28;20028;-69
2021/10/28 18:21:29;;;;;;;8.23;3.28;;;21.50;54.20;;;;;;6243856;28;20393;-68
2021/10/28 18:24:29;;;;;;;6.45;3.15;;;21.50;54.30;;;;;;6241088;28;20030;-69
2021/10/28 18:27:30;;;;;;;5.97;3.30;;;21.50;54.30;;;;;;6251215;28;20025;-69
2021/10/28 18:30:35;;;;;;;4.93;2.78;;;21.50;54.20;;;;;;6255900;28;20029;-69
2021/10/28 18:33:36;;;;;;;7.55;3.20;;;21.50;54.30;;;;;;6247859;28;20508;-66
2021/10/28 18:36:37;;;;;;;6.35;3.10;;;21.50;54.30;;;;;;6250925;28;20028;-66
2021/10/28 18:39:40;;;;;;;5.00;2.80;;;21.50;54.30;;;;;;6221470;28;20036;-66
2021/10/28 18:42:42;;;;;;;5.93;3.15;;;21.50;54.30;;;;;;6239354;28;20490;-67
2021/10/28 18:45:44;;;;;;;4.88;2.97;;;21.50;54.30;;;;;;6242820;28;20037;-66
2021/10/28 18:48:45;;;;;;;5.45;3.15;;;21.50;54.30;;;;;;6243360;28;20052;-66
2021/10/28 18:51:48;;;;;;;4.90;3.00;;;21.50;54.30;;;;;;6251759;28;20043;-69
2021/10/28 18:54:51;;;;;;;4.97;2.40;;;21.50;54.30;;;;;;6256305;28;20057;-69
2021/10/28 18:57:51;;;;;;;5.32;2.95;;;21.50;54.30;;;;;;6245117;28;20422;-68
2021/10/28 19:00:52;;;;;;;5.97;2.60;;;21.50;54.40;;;;;;6242163;28;20087;-68
2021/10/28 19:03:54;;;;;;;5.03;2.83;;;21.50;54.40;;;;;;6243497;28;20195;-68
2021/10/28 19:06:55;;;;;;;4.85;2.92;;;21.50;54.30;;;;;;6240556;28;20112;-68
2021/10/28 19:09:56;;;;;;;4.88;2.58;;;21.50;54.40;;;;;;6239280;28;20108;-68
2021/10/28 19:12:56;;;;;;;5.05;2.53;;;21.50;54.40;;;;;;6243142;28;20396;-68
2021/10/28 19:15:58;;;;;;;4.47;2.92;;;21.50;54.50;;;;;;6243465;28;20036;-67
2021/10/28 19:18:58;;;;;;;6.97;2.47;;;21.50;54.30;;;;;;6262788;28;20437;-68
2021/10/28 19:21:59;;;;;;;5.63;3.28;;;21.50;54.00;;;;;;6266325;28;20056;-67
2021/10/28 19:25:02;;;;;;;5.43;2.45;;;21.50;54.50;;;;;;6264605;28;20014;-67
2021/10/28 19:28:02;;;;;;;4.97;2.35;;;21.50;54.20;;;;;;6237414;28;20105;-68
2021/10/28 19:31:13;;;;;;;5.00;2.45;;;21.50;54.30;;;;;;6247563;28;20021;-67
2021/10/28 19:34:14;;;;;;;5.53;2.70;;;21.50;54.20;;;;;;6267709;28;20021;-67
2021/10/28 19:37:21;;;;;;;4.80;2.78;;;21.50;54.20;;;;;;6253038;28;20430;-67
2021/10/28 19:46:45;;;;;;;6.15;2.50;;;21.50;54.10;;;;;;6253393;28;20487;-67
2021/10/28 19:49:46;;;;;;;3.97;2.65;;;21.50;54.20;;;;;;6218307;28;20088;-67
2021/10/28 19:52:47;;;;;;;5.03;2.70;;;21.50;54.20;;;;;;6234110;28;20474;-68
2021/10/28 19:55:47;;;;;;;5.43;2.80;;;21.50;54.10;;;;;;6245253;28;20029;-67
2021/10/28 19:58:55;;;;;;;4.05;2.40;;;21.50;54.10;;;;;;6247750;28;20445;-67
2021/10/28 20:02:04;;;;;;;3.95;2.22;;;21.50;54.10;;;;;;6255804;28;20032;-67
2021/10/28 20:13:07;;;;;;;3.83;2.40;;;21.50;54.80;;;;;;6252469;28;20498;-67
2021/10/28 20:21:42;;;;;;;3.35;2.40;;;21.50;54.10;;;;;;6251255;28;20037;-68
2021/10/28 20:24:43;;;;;;;3.30;2.40;;;21.50;54.10;;;;;;6270286;28;20075;-67
2021/10/28 20:27:48;;;;;;;5.00;2.05;;;21.50;54.10;;;;;;6266466;28;20025;-67
2021/10/28 20:30:55;;;;;;;4.80;2.70;;;21.50;54.00;;;;;;6270213;28;20023;-69
2021/10/28 20:37:23;;;;;;;3.25;2.28;;;21.50;54.10;;;;;;6255458;28;20461;-67
2021/10/28 20:40:24;;;;;;;3.72;2.40;;;21.50;54.10;;;;;;6271258;28;20036;-67
2021/10/28 20:43:24;;;;;;;3.38;2.13;;;21.50;54.10;;;;;;6247607;28;20065;-67
2021/10/28 20:46:26;;;;;;;3.40;2.30;;;21.50;54.00;;;;;;6242243;28;20064;-67
2021/10/28 20:49:27;;;;;;;4.15;2.38;;;21.50;54.70;;;;;;6222430;28;20058;-67
2021/10/28 20:52:28;;;;;;;3.67;2.13;;;21.50;54.10;;;;;;6235079;28;20028;-68
2021/10/28 20:55:29;;;;;;;3.38;1.88;;;21.50;54.00;;;;;;6245912;28;20065;-68
2021/10/28 20:58:30;;;;;;;5.55;2.15;;;21.50;54.00;;;;;;6267263;28;20060;-68
2021/10/28 21:01:31;;;;;;;2.53;1.90;;;21.50;54.00;;;;;;6266469;28;20102;-68
2021/10/28 21:04:31;;;;;;;3.95;2.40;;;21.50;54.10;;;;;;6245672;28;20026;-67
2021/10/28 21:07:32;;;;;;;3.63;2.30;;;21.50;54.10;;;;;;6254541;28;20017;-67
2021/10/28 21:10:33;;;;;;;3.40;2.10;;;21.50;54.10;;;;;;6270565;28;20067;-68
2021/10/28 21:13:33;;;;;;;3.22;2.08;;;21.50;54.10;;;;;;6255700;28;20029;-67
2021/10/28 21:16:35;;;;;;;2.83;2.13;;;21.50;54.00;;;;;;6245735;28;20080;-67
2021/10/28 21:19:36;;;;;;;2.30;1.80;;;21.50;54.00;;;;;;6257257;28;20091;-67
2021/10/28 21:22:37;;;;;;;3.92;2.20;;;21.50;54.00;;;;;;6245282;28;20471;-67
2021/10/28 21:25:38;;;;;;;2.63;2.03;;;21.50;54.00;;;;;;6252492;28;20035;-67
2021/10/28 21:28:38;;;;;;;3.17;2.15;;;21.50;54.00;;;;;;6269837;28;20025;-67
2021/10/28 21:31:39;;;;;;;3.15;1.98;;;21.50;54.00;;;;;;6269125;28;20028;-68
2021/10/28 21:34:41;;;;;;;3.35;2.05;;;21.50;54.00;;;;;;6262366;28;20042;-67
2021/10/28 21:37:44;;;;;;;4.03;2.40;;;21.50;54.00;;;;;;6245278;28;20108;-67
2021/10/28 21:40:44;;;;;;;3.42;2.08;;;21.50;54.60;;;;;;6246834;28;20040;-67
2021/10/28 21:43:45;;;;;;;3.63;2.30;;;21.50;54.00;;;;;;6269598;28;20029;-67
2021/10/28 21:46:46;;;;;;;3.08;2.00;;;21.50;54.00;;;;;;6259237;28;20477;-67
2021/10/28 21:49:47;;;;;;;3.40;2.22;;;21.50;54.00;;;;;;6245437;28;20032;-67
2021/10/28 21:52:53;;;;;;;2.42;1.80;;;21.50;54.00;;;;;;6244131;28;20048;-67
2021/10/28 21:59:23;;;;;;;3.28;1.90;;;21.50;54.00;;;;;;6245234;28;20089;-67
2021/10/28 22:02:50;;;;;;;3.58;2.13;;;21.50;54.10;;;;;;6255644;28;20033;-67
2021/10/28 22:25:17;;;;;;;2.00;1.50;;;21.50;54.00;;;;;;6249846;28;20033;-67
2021/10/28 22:28:18;;;;;;;2.17;1.70;;;21.50;54.00;;;;;;6268517;28;20112;-68
2021/10/28 22:31:19;;;;;;;2.85;1.85;;;21.50;54.00;;;;;;6260119;28;20671;-67
2021/10/28 22:34:20;;;;;;;2.92;1.90;;;21.50;54.00;;;;;;6242777;28;20029;-67
2021/10/28 22:37:40;;;;;;;2.55;1.70;;;21.50;54.00;;;;;;6259317;28;20029;-67
2021/10/28 22:40:43;;;;;;;3.13;2.00;;;21.40;53.80;;;;;;6268414;28;20024;-67
2021/10/28 22:43:43;;;;;;;3.47;1.80;;;21.50;54.00;;;;;;6268126;28;20500;-67
2021/10/28 22:46:44;;;;;;;2.28;1.52;;;21.50;53.90;;;;;;6254572;28;20030;-68
2021/10/28 22:49:46;;;;;;;2.22;1.67;;;21.50;54.00;;;;;;6219465;28;20034;-68
2021/10/28 22:52:47;;;;;;;2.25;1.58;;;21.50;54.00;;;;;;6249687;28;20431;-67
2021/10/28 22:55:48;;;;;;;2.42;1.98;;;21.50;54.00;;;;;;6268492;28;20402;-67
2021/10/28 22:58:57;;;;;;;2.08;1.55;;;21.50;54.00;;;;;;6267755;28;20028;-67
2021/10/28 23:02:11;;;;;;;2.15;1.58;;;21.50;54.00;;;;;;6259998;28;20442;-67
2021/10/28 23:15:03;;;;;;;2.92;2.00;;;21.40;53.90;;;;;;6267999;28;20029;-67
2021/10/28 23:21:23;;;;;;;2.90;1.88;;;21.50;54.00;;;;;;6242657;28;20037;-67
2021/10/28 23:24:23;;;;;;;2.72;2.22;;;21.50;54.10;;;;;;6265822;28;20040;-67
2021/10/28 23:27:24;;;;;;;2.05;1.60;;;21.40;53.90;;;;;;6244120;28;20102;-67
2021/10/28 23:30:24;;;;;;;3.00;2.00;;;21.40;53.90;;;;;;6241569;28;20423;-67
2021/10/28 23:33:26;;;;;;;2.17;1.63;;;21.50;54.10;;;;;;6267482;28;20033;-68
2021/10/28 23:36:27;;;;;;;2.13;1.63;;;21.40;53.90;;;;;;6260350;28;20073;-68
2021/10/28 23:39:28;;;;;;;1.80;1.45;;;21.40;53.90;;;;;;6242718;28;20426;-67
2021/10/28 23:42:28;;;;;;;2.20;1.70;;;21.40;54.00;;;;;;6242343;28;20032;-67
2021/10/28 23:45:29;;;;;;;3.38;1.85;;;21.40;53.90;;;;;;6242793;28;20029;-67
2021/10/28 23:48:30;;;;;;;2.10;1.70;;;21.40;53.90;;;;;;6221296;28;20052;-67
2021/10/28 23:51:31;;;;;;;2.60;1.70;;;21.50;54.00;;;;;;6224159;28;20402;-67
2021/10/28 23:54:31;;;;;;;3.03;1.75;;;21.40;53.90;;;;;;6242713;28;20029;-67
2021/10/28 23:57:32;;;;;;;2.05;1.60;;;21.50;54.10;;;;;;6255473;28;20096;-67
